createdAt,value
2023-10-09T00:12:45.748Z,69
2023-10-09T00:27:45.722Z,70
2023-10-09T00:42:45.723Z,70
2023-10-09T00:57:45.656Z,70
2023-10-09T01:12:45.765Z,71
2023-10-09T01:27:45.639Z,72
2023-10-09T01:42:45.664Z,72
2023-10-09T01:57:45.569Z,73
2023-10-09T02:12:45.617Z,74
2023-10-09T02:27:45.538Z,74
2023-10-09T02:42:45.572Z,74
2023-10-09T02:57:45.488Z,75
2023-10-09T03:12:45.483Z,74
2023-10-09T03:27:45.446Z,74
2023-10-09T03:42:45.451Z,75
2023-10-09T03:57:45.407Z,74
2023-10-09T04:12:45.398Z,74
2023-10-09T04:27:45.343Z,74
2023-10-09T04:42:45.352Z,74
2023-10-09T04:57:45.393Z,75
2023-10-09T05:12:45.319Z,75
2023-10-09T05:27:45.266Z,75
2023-10-09T05:42:45.420Z,75
2023-10-09T05:57:45.268Z,76
2023-10-09T06:12:45.321Z,76
2023-10-09T06:27:45.231Z,76
2023-10-09T06:42:45.431Z,77
2023-10-09T06:57:45.253Z,75
2023-10-09T07:12:45.329Z,74
2023-10-09T07:27:45.387Z,73
2023-10-09T07:42:45.382Z,72
2023-10-09T07:57:45.095Z,70
2023-10-09T08:12:45.109Z,69
2023-10-09T08:27:45.007Z,67
2023-10-09T08:42:44.960Z,65
2023-10-09T09:12:44.941Z,64
2023-10-09T09:27:44.876Z,65
2023-10-09T09:42:44.877Z,65
2023-10-09T09:57:44.821Z,64
2023-10-09T10:12:44.847Z,64
2023-10-09T10:27:44.788Z,63
2023-10-09T10:42:44.785Z,61
2023-10-09T10:57:44.716Z,59
2023-10-09T11:12:44.728Z,58
2023-10-09T11:27:44.658Z,58
2023-10-09T11:42:44.696Z,58
2023-10-09T11:57:44.608Z,58
2023-10-09T12:12:44.612Z,58
2023-10-09T12:27:44.572Z,57
2023-10-09T12:42:44.572Z,57
2023-10-09T12:57:44.514Z,57
2023-10-09T13:12:44.513Z,57
2023-10-09T13:27:44.461Z,56
2023-10-09T13:42:44.453Z,56
2023-10-09T13:57:44.455Z,56
2023-10-09T14:12:44.399Z,55
2023-10-09T14:27:44.347Z,55
2023-10-09T14:42:44.360Z,55
2023-10-09T14:57:44.297Z,55
2023-10-09T15:12:44.495Z,55
2023-10-09T15:27:44.307Z,55
2023-10-09T15:42:44.291Z,55
2023-10-09T15:57:44.205Z,55
2023-10-09T16:12:44.197Z,54
2023-10-09T16:27:44.116Z,54
2023-10-09T16:42:44.112Z,54
2023-10-09T16:57:44.140Z,54
2023-10-09T17:12:44.056Z,55
2023-10-09T17:27:44.008Z,55
2023-10-09T17:42:44.023Z,56
2023-10-09T17:57:43.946Z,56
2023-10-09T18:12:43.996Z,56
2023-10-09T18:27:43.912Z,57
2023-10-09T18:42:43.924Z,57
2023-10-09T18:57:43.849Z,58
2023-10-09T19:12:43.866Z,58
2023-10-09T19:27:43.816Z,59
2023-10-09T19:42:43.766Z,59
2023-10-09T19:57:43.769Z,60
2023-10-09T20:12:43.773Z,60
2023-10-09T20:27:43.730Z,61
2023-10-09T20:42:43.710Z,62
2023-10-09T20:57:43.655Z,62
2023-10-09T21:12:43.640Z,62
2023-10-09T21:27:43.635Z,63
2023-10-09T21:42:43.599Z,63
2023-10-09T21:57:43.598Z,63
2023-10-09T22:12:43.560Z,63
2023-10-09T22:27:43.515Z,63
2023-10-09T22:42:43.492Z,64
2023-10-09T22:57:43.500Z,64
2023-10-09T23:12:43.450Z,65
2023-10-09T23:27:43.386Z,65
2023-10-09T23:42:43.416Z,65
2023-10-09T23:57:43.363Z,66
